createdAt,value
2023-06-04T00:02:15.079Z,1.20
2023-06-04T00:04:41.649Z,0.90
2023-06-04T00:07:08.120Z,1.17
2023-06-04T00:09:34.661Z,1.20
2023-06-04T00:12:01.264Z,1.20
2023-06-04T00:14:27.823Z,1.35
2023-06-04T00:16:54.359Z,1.20
2023-06-04T00:19:20.795Z,1.95
2023-06-04T00:21:47.357Z,2.20
2023-06-04T00:24:14.207Z,2.92
2023-06-04T00:26:40.982Z,3.17
2023-06-04T00:29:07.466Z,3.47
2023-06-04T00:31:33.968Z,2.00
2023-06-04T00:34:00.438Z,2.00
2023-06-04T00:36:26.872Z,1.73
2023-06-04T00:38:53.357Z,1.67
2023-06-04T00:41:19.791Z,1.63
2023-06-04T00:43:46.971Z,1.50
2023-06-04T00:46:19.281Z,1.48
2023-06-04T00:48:45.980Z,1.00
2023-06-04T00:51:13.365Z,1.23
2023-06-04T00:53:40.503Z,1.20
2023-06-04T00:56:07.490Z,1.30
2023-06-04T00:58:40.961Z,1.20
2023-06-04T01:01:16.119Z,1.60
2023-06-04T01:03:47.313Z,1.15
2023-06-04T01:06:22.393Z,0.97
2023-06-04T01:08:55.692Z,0.90
2023-06-04T01:11:40.120Z,1.38
2023-06-04T01:14:11.091Z,1.40
2023-06-04T01:17:02.478Z,1.17
2023-06-04T01:19:38.779Z,1.47
2023-06-04T01:22:17.498Z,1.20
2023-06-04T01:24:56.651Z,1.25
2023-06-04T01:27:24.075Z,1.30
2023-06-04T01:29:52.440Z,1.20
2023-06-04T01:32:19.080Z,1.07
2023-06-04T01:34:46.828Z,1.08
2023-06-04T01:37:13.635Z,0.80
2023-06-04T01:39:40.115Z,1.10
2023-06-04T01:42:06.948Z,0.93
2023-06-04T01:44:33.342Z,1.20
2023-06-04T01:46:59.805Z,1.45
2023-06-04T01:49:26.251Z,0.95
2023-06-04T01:51:52.707Z,1.15
2023-06-04T01:54:19.126Z,1.20
2023-06-04T01:56:46.111Z,1.23
2023-06-04T01:59:13.044Z,1.08
2023-06-04T02:01:39.655Z,1.30
2023-06-04T02:04:06.171Z,1.00
2023-06-04T02:06:32.638Z,1.17
2023-06-04T02:08:59.072Z,0.83
2023-06-04T02:11:26.113Z,1.30
2023-06-04T02:13:52.579Z,1.05
2023-06-04T02:16:19.038Z,1.23
2023-06-04T02:18:45.598Z,1.30
2023-06-04T02:21:13.386Z,1.40
2023-06-04T02:23:39.897Z,1.40
2023-06-04T02:26:07.388Z,0.93
2023-06-04T02:28:33.789Z,1.40
2023-06-04T02:31:00.467Z,1.42
2023-06-04T02:33:27.119Z,1.90
2023-06-04T02:35:53.866Z,1.40
2023-06-04T02:38:20.461Z,1.30
2023-06-04T02:40:46.917Z,1.10
2023-06-04T02:43:13.347Z,1.42
2023-06-04T02:45:39.808Z,1.20
2023-06-04T02:48:06.362Z,2.55
2023-06-04T02:50:32.845Z,1.38
2023-06-04T02:52:59.306Z,1.10
2023-06-04T02:55:26.147Z,1.88
2023-06-04T02:57:53.082Z,1.53
2023-06-04T03:00:19.843Z,1.40
2023-06-04T03:02:47.862Z,1.30
2023-06-04T03:05:16.213Z,1.60
2023-06-04T03:07:44.329Z,1.48
2023-06-04T03:10:12.325Z,1.17
2023-06-04T03:12:38.751Z,1.25
2023-06-04T03:15:05.916Z,1.33
2023-06-04T03:17:33.733Z,1.30
2023-06-04T03:20:00.351Z,1.60
2023-06-04T03:22:27.148Z,1.60
2023-06-04T03:24:53.613Z,1.70
2023-06-04T03:27:20.876Z,1.40
2023-06-04T03:29:47.408Z,1.30
2023-06-04T03:32:14.020Z,1.65
2023-06-04T03:34:40.501Z,1.00
2023-06-04T03:37:07.034Z,1.70
2023-06-04T03:39:33.433Z,1.83
2023-06-04T03:41:59.918Z,1.67
2023-06-04T03:44:26.519Z,1.83
2023-06-04T03:46:53.006Z,1.80
2023-06-04T03:49:20.564Z,1.50
2023-06-04T03:51:47.188Z,1.50
2023-06-04T03:54:17.639Z,1.50
2023-06-04T03:56:46.157Z,1.77
2023-06-04T03:59:12.601Z,2.17
2023-06-04T04:01:39.674Z,1.90
2023-06-04T04:04:06.626Z,2.00
2023-06-04T04:06:33.246Z,2.20
2023-06-04T04:08:59.793Z,1.90
2023-06-04T04:11:26.879Z,1.90
2023-06-04T04:13:53.435Z,1.80
2023-06-04T04:16:19.911Z,1.90
2023-06-04T04:18:46.785Z,1.65
2023-06-04T04:21:13.332Z,2.03
2023-06-04T04:23:43.287Z,1.73
2023-06-04T04:26:11.185Z,1.60
2023-06-04T04:28:38.224Z,2.05
2023-06-04T04:31:05.896Z,1.80
2023-06-04T04:33:37.978Z,2.30
2023-06-04T04:36:04.574Z,1.83
2023-06-04T04:38:32.412Z,2.00
2023-06-04T04:40:58.973Z,1.58
2023-06-04T04:43:36.330Z,2.20
2023-06-04T04:46:02.838Z,2.30
2023-06-04T04:48:29.373Z,2.00
2023-06-04T04:50:55.862Z,1.80
2023-06-04T04:53:22.868Z,2.55
2023-06-04T04:55:49.320Z,2.03
2023-06-04T04:58:16.183Z,2.08
2023-06-04T05:00:42.853Z,2.10
2023-06-04T05:03:09.580Z,2.17
2023-06-04T05:05:36.096Z,2.10
2023-06-04T05:08:02.548Z,2.20
2023-06-04T05:10:28.951Z,1.90
2023-06-04T05:12:58.055Z,2.20
2023-06-04T05:15:25.619Z,1.80
2023-06-04T05:17:53.742Z,1.90
2023-06-04T05:20:22.133Z,2.10
2023-06-04T05:22:48.619Z,2.10
2023-06-04T05:25:17.671Z,2.00
2023-06-04T05:27:44.173Z,1.90
2023-06-04T05:30:11.207Z,1.92
2023-06-04T05:32:41.699Z,1.92
2023-06-04T05:35:09.184Z,2.05
2023-06-04T05:37:36.446Z,2.20
2023-06-04T05:40:03.902Z,1.90
2023-06-04T05:42:30.337Z,2.20
2023-06-04T05:44:56.861Z,2.30
2023-06-04T05:47:23.538Z,2.28
2023-06-04T05:49:50.060Z,2.23
2023-06-04T05:52:16.571Z,2.03
2023-06-04T05:54:42.956Z,1.80
2023-06-04T05:57:09.363Z,2.00
2023-06-04T05:59:35.957Z,2.00
2023-06-04T06:02:03.619Z,2.03
2023-06-04T06:04:30.117Z,2.00
2023-06-04T06:06:57.157Z,1.92
2023-06-04T06:09:23.658Z,2.10
2023-06-04T06:11:50.107Z,1.80
2023-06-04T06:14:16.790Z,1.77
2023-06-04T06:16:43.241Z,2.03
2023-06-04T06:19:09.764Z,2.00
2023-06-04T06:21:37.203Z,1.75
2023-06-04T06:24:03.906Z,2.00
2023-06-04T06:26:31.095Z,1.63
2023-06-04T06:28:57.642Z,1.73
2023-06-04T06:31:24.319Z,1.60
2023-06-04T06:33:51.318Z,1.90
2023-06-04T06:36:19.930Z,1.55
2023-06-04T06:38:47.235Z,1.60
2023-06-04T06:41:14.188Z,2.00
2023-06-04T06:43:40.846Z,1.70
2023-06-04T06:46:07.846Z,1.88
2023-06-04T06:48:34.394Z,1.55
2023-06-04T06:51:00.972Z,1.73
2023-06-04T06:53:27.453Z,1.85
2023-06-04T06:55:53.909Z,1.52
2023-06-04T06:58:20.461Z,1.90
2023-06-04T07:00:46.888Z,2.03
2023-06-04T07:03:13.709Z,1.70
2023-06-04T07:05:40.301Z,1.80
2023-06-04T07:08:06.742Z,1.58
2023-06-04T07:10:33.186Z,1.80
2023-06-04T07:13:00.033Z,1.83
2023-06-04T07:15:26.492Z,1.60
2023-06-04T07:17:53.048Z,1.85
2023-06-04T07:20:19.670Z,1.58
2023-06-04T07:22:46.422Z,1.67
2023-06-04T07:25:12.824Z,1.40
2023-06-04T07:27:39.395Z,1.83
2023-06-04T07:30:07.683Z,1.73
2023-06-04T07:32:34.247Z,1.40
2023-06-04T07:35:00.706Z,1.95
2023-06-04T07:37:27.316Z,1.58
2023-06-04T07:39:53.753Z,1.93
2023-06-04T07:42:20.254Z,1.80
2023-06-04T07:44:46.648Z,1.80
2023-06-04T07:47:13.076Z,1.65
2023-06-04T07:49:44.637Z,1.30
2023-06-04T07:52:17.480Z,1.23
2023-06-04T07:54:43.897Z,1.50
2023-06-04T07:57:11.292Z,1.40
2023-06-04T07:59:37.775Z,1.20
2023-06-04T08:02:04.364Z,1.40
2023-06-04T08:04:30.950Z,1.00
2023-06-04T08:06:57.467Z,1.30
2023-06-04T08:09:24.126Z,1.40
2023-06-04T08:11:50.689Z,1.25
2023-06-04T08:14:17.109Z,1.40
2023-06-04T08:16:43.751Z,1.00
2023-06-04T08:19:10.691Z,1.10
2023-06-04T08:21:37.135Z,1.23
2023-06-04T08:24:04.395Z,0.88
2023-06-04T08:26:31.810Z,1.00
2023-06-04T08:28:58.471Z,1.37
2023-06-04T08:31:24.983Z,1.02
2023-06-04T08:33:51.489Z,1.25
2023-06-04T08:36:17.987Z,1.50
2023-06-04T08:38:47.205Z,1.10
2023-06-04T08:41:21.325Z,1.10
2023-06-04T08:43:50.223Z,1.00
2023-06-04T08:46:18.728Z,1.30
2023-06-04T08:48:45.832Z,1.50
2023-06-04T08:51:12.503Z,1.75
2023-06-04T08:53:39.363Z,1.20
2023-06-04T08:56:06.144Z,1.20
2023-06-04T08:58:36.649Z,1.27
2023-06-04T09:01:04.014Z,1.13
2023-06-04T09:03:33.590Z,1.30
2023-06-04T09:06:01.131Z,1.30
2023-06-04T09:08:32.497Z,1.73
2023-06-04T09:10:59.014Z,1.17
2023-06-04T09:13:29.444Z,1.33
2023-06-04T09:16:07.005Z,1.00
2023-06-04T09:18:34.008Z,1.03
2023-06-04T09:21:08.856Z,1.10
2023-06-04T09:23:45.698Z,1.05
2023-06-04T09:26:13.444Z,0.95
2023-06-04T09:28:47.121Z,1.15
2023-06-04T09:31:17.955Z,1.23
2023-06-04T09:33:50.006Z,1.02
2023-06-04T09:36:17.049Z,0.90
2023-06-04T09:38:44.022Z,1.50
2023-06-04T09:41:18.307Z,0.80
2023-06-04T09:43:45.040Z,1.30
2023-06-04T09:46:16.617Z,0.90
2023-06-04T09:48:44.583Z,1.17
2023-06-04T09:51:13.025Z,1.00
2023-06-04T09:53:40.191Z,0.93
2023-06-04T09:56:07.649Z,1.00
2023-06-04T09:58:35.204Z,1.40
2023-06-04T10:01:04.725Z,1.10
2023-06-04T10:03:34.086Z,1.30
2023-06-04T10:06:03.290Z,1.25
2023-06-04T10:08:31.372Z,1.30
2023-06-04T10:11:02.719Z,1.10
2023-06-04T10:13:32.403Z,1.20
2023-06-04T10:15:59.858Z,1.38
2023-06-04T10:18:29.700Z,1.27
2023-06-04T10:20:57.153Z,1.50
2023-06-04T10:23:24.848Z,1.27
2023-06-04T10:25:53.584Z,1.23
2023-06-04T10:28:21.620Z,1.20
2023-06-04T10:30:51.499Z,1.33
2023-06-04T10:33:21.029Z,1.00
2023-06-04T10:35:47.873Z,1.00
2023-06-04T10:38:17.382Z,1.50
2023-06-04T10:40:44.508Z,1.50
2023-06-04T10:43:17.102Z,1.10
2023-06-04T10:45:43.761Z,0.97
2023-06-04T10:48:13.384Z,1.00
2023-06-04T10:50:53.334Z,1.17
2023-06-04T10:53:21.036Z,1.02
2023-06-04T10:55:49.264Z,1.58
2023-06-04T10:58:16.921Z,1.07
2023-06-04T11:00:50.130Z,1.08
2023-06-04T11:03:16.994Z,1.30
2023-06-04T11:05:45.613Z,1.13
2023-06-04T11:08:14.330Z,1.10
2023-06-04T11:10:46.944Z,1.50
2023-06-04T11:13:13.587Z,1.20
2023-06-04T11:15:42.755Z,1.08
2023-06-04T11:18:14.583Z,0.80
2023-06-04T11:20:41.125Z,1.00
2023-06-04T11:23:07.570Z,1.20
2023-06-04T11:25:34.249Z,0.80
2023-06-04T11:28:02.697Z,1.10
2023-06-04T11:30:29.580Z,1.42
2023-06-04T11:33:03.963Z,1.10
2023-06-04T11:35:30.646Z,1.30
2023-06-04T11:37:58.296Z,1.27
2023-06-04T11:40:25.308Z,1.27
2023-06-04T11:42:51.838Z,1.25
2023-06-04T11:45:21.639Z,1.00
2023-06-04T11:47:49.441Z,1.30
2023-06-04T11:50:16.423Z,0.90
2023-06-04T11:52:43.712Z,1.17
2023-06-04T11:55:11.892Z,1.10
2023-06-04T11:57:39.818Z,0.98
2023-06-04T12:00:10.394Z,1.17
2023-06-04T12:02:50.927Z,0.93
2023-06-04T12:05:21.108Z,0.90
2023-06-04T12:07:51.707Z,0.90
2023-06-04T12:10:19.860Z,1.10
2023-06-04T12:12:46.942Z,1.10
2023-06-04T12:15:20.332Z,1.40
2023-06-04T12:17:51.649Z,1.20
2023-06-04T12:20:18.614Z,1.20
2023-06-04T12:22:46.924Z,1.10
2023-06-04T12:25:13.787Z,1.03
2023-06-04T12:27:48.980Z,1.05
2023-06-04T12:30:16.935Z,1.10
2023-06-04T12:32:43.505Z,1.00
2023-06-04T12:35:10.052Z,0.82
2023-06-04T12:37:36.528Z,1.10
2023-06-04T12:40:05.223Z,1.20
2023-06-04T12:42:32.500Z,1.10
2023-06-04T12:44:58.995Z,1.10
2023-06-04T12:47:25.568Z,1.23
2023-06-04T12:49:53.177Z,1.17
2023-06-04T12:52:19.669Z,1.15
2023-06-04T12:54:46.217Z,1.10
2023-06-04T12:57:12.880Z,1.17
2023-06-04T12:59:39.301Z,1.25
2023-06-04T13:02:06.754Z,1.10
2023-06-04T13:04:33.274Z,1.10
2023-06-04T13:07:02.650Z,1.10
2023-06-04T13:09:29.955Z,1.10
2023-06-04T13:11:56.592Z,1.10
2023-06-04T13:14:23.047Z,1.53
2023-06-04T13:16:50.159Z,1.50
2023-06-04T13:19:16.702Z,1.00
2023-06-04T13:21:43.163Z,1.30
2023-06-04T13:24:11.900Z,1.38
2023-06-04T13:26:39.999Z,0.90
2023-06-04T13:29:06.580Z,1.20
2023-06-04T13:31:33.106Z,1.30
2023-06-04T13:34:00.348Z,1.40
2023-06-04T13:36:28.949Z,1.15
2023-06-04T13:38:56.051Z,1.30
2023-06-04T13:41:22.498Z,1.20
2023-06-04T13:43:49.002Z,1.20
2023-06-04T13:46:15.498Z,1.00
2023-06-04T13:48:41.909Z,1.20
2023-06-04T13:51:08.605Z,1.30
2023-06-04T13:53:35.418Z,1.10
2023-06-04T13:56:02.021Z,1.25
2023-06-04T13:58:28.447Z,1.00
2023-06-04T14:00:55.307Z,1.00
2023-06-04T14:03:21.958Z,1.60
2023-06-04T14:05:48.554Z,1.38
2023-06-04T14:08:15.206Z,1.50
2023-06-04T14:10:44.584Z,1.40
2023-06-04T14:13:11.155Z,1.40
2023-06-04T14:15:37.884Z,1.07
2023-06-04T14:18:05.351Z,1.17
2023-06-04T14:20:31.939Z,1.00
2023-06-04T14:22:58.643Z,1.50
2023-06-04T14:25:25.283Z,1.30
2023-06-04T14:27:52.030Z,1.47
2023-06-04T14:30:18.480Z,1.33
2023-06-04T14:32:44.951Z,1.42
2023-06-04T14:35:11.420Z,1.92
2023-06-04T14:37:37.819Z,1.40
2023-06-04T14:40:04.612Z,1.30
2023-06-04T14:42:31.019Z,1.30
2023-06-04T14:44:57.467Z,1.50
2023-06-04T14:47:24.054Z,1.33
2023-06-04T14:49:50.529Z,1.20
2023-06-04T14:52:17.344Z,1.30
2023-06-04T14:54:43.756Z,1.40
2023-06-04T14:57:10.240Z,1.20
2023-06-04T14:59:37.935Z,1.10
2023-06-04T15:02:04.655Z,1.80
2023-06-04T15:04:31.114Z,1.83
2023-06-04T15:06:57.574Z,0.93
2023-06-04T15:09:24.043Z,1.50
2023-06-04T15:11:50.481Z,1.50
2023-06-04T15:14:16.940Z,1.88
2023-06-04T15:16:43.369Z,1.60
2023-06-04T15:19:10.826Z,1.10
2023-06-04T15:21:37.420Z,1.50
2023-06-04T15:24:04.084Z,1.20
2023-06-04T15:26:30.947Z,1.90
2023-06-04T15:28:57.586Z,1.70
2023-06-04T15:31:24.403Z,1.73
2023-06-04T15:33:51.087Z,1.48
2023-06-04T15:36:17.634Z,1.70
2023-06-04T15:38:44.060Z,1.73
2023-06-04T15:41:10.713Z,1.50
2023-06-04T15:43:37.206Z,1.63
2023-06-04T15:46:03.687Z,1.25
2023-06-04T15:48:31.575Z,1.70
2023-06-04T15:50:58.039Z,1.45
2023-06-04T15:53:24.600Z,1.50
2023-06-04T15:55:51.372Z,1.13
2023-06-04T15:58:17.988Z,1.60
2023-06-04T16:00:44.415Z,1.67
2023-06-04T16:03:11.104Z,1.52
2023-06-04T16:05:37.525Z,1.93
2023-06-04T16:08:04.687Z,1.80
2023-06-04T16:10:31.168Z,1.75
2023-06-04T16:12:57.614Z,1.83
2023-06-04T16:15:24.129Z,1.73
2023-06-04T16:17:50.669Z,1.33
2023-06-04T16:20:17.452Z,1.40
2023-06-04T16:22:43.927Z,1.60
2023-06-04T16:25:10.731Z,2.03
2023-06-04T16:27:37.284Z,1.52
2023-06-04T16:30:05.830Z,1.57
2023-06-04T16:32:32.589Z,1.85
2023-06-04T16:35:00.562Z,2.30
2023-06-04T16:37:27.518Z,1.75
2023-06-04T16:39:54.030Z,1.67
2023-06-04T16:42:20.443Z,2.03
2023-06-04T16:44:47.218Z,1.15
2023-06-04T16:47:14.180Z,1.63
2023-06-04T16:49:40.657Z,2.10
2023-06-04T16:52:08.365Z,1.77
2023-06-04T16:54:35.019Z,1.70
2023-06-04T16:57:01.626Z,1.65
2023-06-04T16:59:31.038Z,1.50
2023-06-04T17:01:58.316Z,1.63
2023-06-04T17:04:24.872Z,1.45
2023-06-04T17:07:01.760Z,1.87
2023-06-04T17:09:43.616Z,1.90
2023-06-04T17:12:10.147Z,2.15
2023-06-04T17:14:36.596Z,1.90
2023-06-04T17:17:03.476Z,1.90
2023-06-04T17:19:32.653Z,2.77
2023-06-04T17:22:00.339Z,1.67
2023-06-04T17:24:36.178Z,1.98
2023-06-04T17:27:02.648Z,1.80
2023-06-04T17:29:29.082Z,1.50
2023-06-04T17:31:55.840Z,1.43
2023-06-04T17:34:22.274Z,1.38
2023-06-04T17:36:48.786Z,1.75
2023-06-04T17:39:15.225Z,1.80
2023-06-04T17:41:41.665Z,1.70
2023-06-04T17:44:08.083Z,1.70
2023-06-04T17:46:34.592Z,1.55
2023-06-04T17:49:29.083Z,2.38
2023-06-04T17:51:55.639Z,1.23
2023-06-04T17:54:22.192Z,1.48
2023-06-04T17:56:48.618Z,1.37
2023-06-04T17:59:15.219Z,1.80
2023-06-04T18:01:41.733Z,1.60
2023-06-04T18:04:08.162Z,1.50
2023-06-04T18:06:34.594Z,1.77
2023-06-04T18:09:01.179Z,1.50
2023-06-04T18:11:27.934Z,1.27
2023-06-04T18:13:54.533Z,1.50
2023-06-04T18:16:21.089Z,1.42
2023-06-04T18:18:47.570Z,1.40
2023-06-04T18:21:14.143Z,1.47
2023-06-04T18:23:41.731Z,1.42
2023-06-04T18:26:08.402Z,1.30
2023-06-04T18:28:34.991Z,1.35
2023-06-04T18:31:01.456Z,1.55
2023-06-04T18:33:28.224Z,1.37
2023-06-04T18:35:54.664Z,1.00
2023-06-04T18:38:21.075Z,1.45
2023-06-04T18:40:47.554Z,2.00
2023-06-04T18:43:14.094Z,1.70
2023-06-04T18:45:40.595Z,2.00
2023-06-04T18:48:07.877Z,2.10
2023-06-04T18:50:37.274Z,1.60
2023-06-04T18:53:06.119Z,1.50
2023-06-04T18:55:32.606Z,1.50
2023-06-04T18:57:59.064Z,1.60
2023-06-04T19:00:25.767Z,1.65
2023-06-04T19:02:53.927Z,1.13
2023-06-04T19:05:20.485Z,1.38
2023-06-04T19:07:47.020Z,1.38
2023-06-04T19:10:15.163Z,1.90
2023-06-04T19:12:43.416Z,2.25
2023-06-04T19:15:10.175Z,1.20
2023-06-04T19:17:36.762Z,1.20
2023-06-04T19:20:03.594Z,1.70
2023-06-04T19:22:30.110Z,1.30
2023-06-04T19:24:56.782Z,1.50
2023-06-04T19:27:23.204Z,1.80
2023-06-04T19:29:49.646Z,1.20
2023-06-04T19:32:16.038Z,1.20
2023-06-04T19:34:42.925Z,1.67
2023-06-04T19:37:09.474Z,1.25
2023-06-04T19:39:35.927Z,1.60
2023-06-04T19:42:02.394Z,1.63
2023-06-04T19:44:28.826Z,1.40
2023-06-04T19:46:55.344Z,1.57
2023-06-04T19:49:21.905Z,2.08
2023-06-04T19:51:48.767Z,1.60
2023-06-04T19:54:15.235Z,1.80
2023-06-04T19:56:42.673Z,1.50
2023-06-04T19:59:09.205Z,1.80
2023-06-04T20:01:36.187Z,1.63
2023-06-04T20:04:02.656Z,1.80
2023-06-04T20:06:29.435Z,1.73
2023-06-04T20:08:55.948Z,2.10
2023-06-04T20:11:23.205Z,1.70
2023-06-04T20:13:50.256Z,1.85
2023-06-04T20:16:16.829Z,2.20
2023-06-04T20:18:43.294Z,1.75
2023-06-04T20:21:09.734Z,1.70
2023-06-04T20:23:36.642Z,2.37
2023-06-04T20:26:03.109Z,2.17
2023-06-04T20:28:31.449Z,1.80
2023-06-04T20:30:57.993Z,1.80
2023-06-04T20:33:26.574Z,1.90
2023-06-04T20:35:53.045Z,1.87
2023-06-04T20:38:19.444Z,2.00
2023-06-04T20:40:45.884Z,2.17
2023-06-04T20:43:15.231Z,1.40
2023-06-04T20:45:41.672Z,1.95
2023-06-04T20:48:08.155Z,1.90
2023-06-04T20:50:34.646Z,1.67
2023-06-04T20:53:01.098Z,1.77
2023-06-04T20:55:27.555Z,1.48
2023-06-04T20:57:53.971Z,2.13
2023-06-04T21:00:20.649Z,2.10
2023-06-04T21:02:47.217Z,1.98
2023-06-04T21:05:13.746Z,1.98
2023-06-04T21:07:40.428Z,1.80
2023-06-04T21:10:07.168Z,2.05
2023-06-04T21:12:33.606Z,1.70
2023-06-04T21:15:00.035Z,2.00
2023-06-04T21:17:26.505Z,2.30
2023-06-04T21:19:53.145Z,1.88
2023-06-04T21:22:19.576Z,2.40
2023-06-04T21:24:47.086Z,1.97
2023-06-04T21:27:13.754Z,2.03
2023-06-04T21:29:40.194Z,1.80
2023-06-04T21:32:06.677Z,1.80
2023-06-04T21:34:33.190Z,1.65
2023-06-04T21:36:59.610Z,1.60
2023-06-04T21:39:26.127Z,2.10
2023-06-04T21:41:52.678Z,1.48
2023-06-04T21:44:19.100Z,1.23
2023-06-04T21:46:46.102Z,1.92
2023-06-04T21:49:12.910Z,1.93
2023-06-04T21:51:41.255Z,1.80
2023-06-04T21:54:09.879Z,1.80
2023-06-04T21:56:37.594Z,2.25
2023-06-04T21:59:04.042Z,1.88
2023-06-04T22:01:30.639Z,2.30
2023-06-04T22:03:57.165Z,2.13
2023-06-04T22:06:24.318Z,2.00
2023-06-04T22:08:50.890Z,2.30
2023-06-04T22:11:18.429Z,1.90
2023-06-04T22:13:44.888Z,2.30
2023-06-04T22:16:11.381Z,2.25
2023-06-04T22:18:52.295Z,2.35
2023-06-04T22:21:20.583Z,2.10
2023-06-04T22:23:47.074Z,2.30
2023-06-04T22:26:21.212Z,2.00
2023-06-04T22:28:55.257Z,2.03
2023-06-04T22:31:21.740Z,2.38
2023-06-04T22:33:48.236Z,2.33
2023-06-04T22:36:14.679Z,2.17
2023-06-04T22:38:41.067Z,1.93
2023-06-04T22:41:07.813Z,2.30
2023-06-04T22:43:34.487Z,2.63
2023-06-04T22:46:01.141Z,2.63
2023-06-04T22:48:27.618Z,2.65
2023-06-04T22:50:58.293Z,2.33
2023-06-04T22:53:24.802Z,2.70
2023-06-04T22:55:51.317Z,2.90
2023-06-04T22:58:17.870Z,1.85
2023-06-04T23:00:49.969Z,2.33
2023-06-04T23:03:17.499Z,3.20
2023-06-04T23:05:44.036Z,2.85
2023-06-04T23:08:10.476Z,2.55
2023-06-04T23:10:36.918Z,2.55
2023-06-04T23:13:03.333Z,2.45
2023-06-04T23:15:29.779Z,2.87
2023-06-04T23:17:56.248Z,2.38
2023-06-04T23:20:22.702Z,2.40
2023-06-04T23:22:49.192Z,2.70
2023-06-04T23:25:16.473Z,2.80
2023-06-04T23:27:42.891Z,2.60
2023-06-04T23:30:09.952Z,2.60
2023-06-04T23:32:36.562Z,2.50
2023-06-04T23:35:03.073Z,2.70
2023-06-04T23:37:29.562Z,2.50
2023-06-04T23:39:55.985Z,3.40
2023-06-04T23:42:22.402Z,2.75
2023-06-04T23:44:48.838Z,2.90
2023-06-04T23:47:15.398Z,3.10
2023-06-04T23:49:41.880Z,2.78
2023-06-04T23:52:08.343Z,2.67
2023-06-04T23:54:34.778Z,2.92
2023-06-04T23:57:01.308Z,2.95
2023-06-04T23:59:27.759Z,3.15
